sensor_id;sensor_type;location;lat;lon;timestamp;pressure;altitude;pressure_sealevel;temperature;humidity
6680;BME280;3376;42.664;23.346;2023-03-11T00:00:50;92741.13;;;11.97;100.00
6680;BME280;3376;42.664;23.346;2023-03-11T00:03:19;92783.13;;;11.94;100.00
6680;BME280;3376;42.664;23.346;2023-03-11T00:05:47;92783.34;;;12.04;100.00
6680;BME280;3376;42.664;23.346;2023-03-11T00:08:15;92781.84;;;12.20;100.00
6680;BME280;3376;42.664;23.346;2023-03-11T00:10:44;92788.06;;;11.96;100.00
6680;BME280;3376;42.664;23.346;2023-03-11T00:13:13;92745.44;;;11.80;100.00
6680;BME280;3376;42.664;23.346;2023-03-11T00:15:41;92746.06;;;11.41;100.00
6680;BME280;3376;42.664;23.346;2023-03-11T00:18:08;92772.88;;;11.35;100.00
6680;BME280;3376;42.664;23.346;2023-03-11T00:20:37;92746.06;;;11.29;100.00
6680;BME280;3376;42.664;23.346;2023-03-11T00:23:06;92736.31;;;11.02;100.00
6680;BME280;3376;42.664;23.346;2023-03-11T00:25:35;92736.47;;;10.89;100.00
6680;BME280;3376;42.664;23.346;2023-03-11T00:28:03;92754.81;;;10.87;100.00
6680;BME280;3376;42.664;23.346;2023-03-11T00:30:29;92765.03;;;10.71;100.00
6680;BME280;3376;42.664;23.346;2023-03-11T00:32:57;92761.16;;;10.61;100.00
6680;BME280;3376;42.664;23.346;2023-03-11T00:35:26;92744.69;;;10.56;100.00
6680;BME280;3376;42.664;23.346;2023-03-11T00:37:56;92757.97;;;10.59;100.00
6680;BME280;3376;42.664;23.346;2023-03-11T00:40:25;92670.84;;;10.06;100.00
6680;BME280;3376;42.664;23.346;2023-03-11T00:42:52;92751.69;;;10.55;100.00
6680;BME280;3376;42.664;23.346;2023-03-11T00:45:20;92754.41;;;10.60;100.00
6680;BME280;3376;42.664;23.346;2023-03-11T00:47:47;92748.34;;;10.66;100.00
6680;BME280;3376;42.664;23.346;2023-03-11T00:50:15;92741.59;;;10.65;100.00
6680;BME280;3376;42.664;23.346;2023-03-11T00:52:43;92727.50;;;10.61;100.00
6680;BME280;3376;42.664;23.346;2023-03-11T00:55:13;92711.13;;;10.49;100.00
6680;BME280;3376;42.664;23.346;2023-03-11T00:57:40;92713.19;;;10.59;100.00
6680;BME280;3376;42.664;23.346;2023-03-11T01:00:08;92699.91;;;10.55;100.00
6680;BME280;3376;42.664;23.346;2023-03-11T01:02:36;92699.09;;;10.55;100.00
6680;BME280;3376;42.664;23.346;2023-03-11T01:05:04;92702.03;;;10.58;100.00
6680;BME280;3376;42.664;23.346;2023-03-11T01:07:31;92701.91;;;10.53;100.00
6680;BME280;3376;42.664;23.346;2023-03-11T01:09:58;92693.56;;;10.51;100.00
6680;BME280;3376;42.664;23.346;2023-03-11T01:12:26;92697.19;;;10.50;100.00
6680;BME280;3376;42.664;23.346;2023-03-11T01:14:52;92693.03;;;10.61;100.00
6680;BME280;3376;42.664;23.346;2023-03-11T01:17:19;92689.09;;;10.58;100.00
6680;BME280;3376;42.664;23.346;2023-03-11T01:19:47;92688.16;;;10.53;100.00
6680;BME280;3376;42.664;23.346;2023-03-11T01:22:14;92545.25;;;9.80;100.00
6680;BME280;3376;42.664;23.346;2023-03-11T01:24:41;92660.97;;;10.62;100.00
6680;BME280;3376;42.664;23.346;2023-03-11T01:27:07;92658.06;;;10.70;100.00
6680;BME280;3376;42.664;23.346;2023-03-11T01:29:36;92654.16;;;10.79;100.00
6680;BME280;3376;42.664;23.346;2023-03-11T01:32:03;92643.66;;;10.74;100.00
6680;BME280;3376;42.664;23.346;2023-03-11T01:34:29;92645.00;;;10.77;100.00
6680;BME280;3376;42.664;23.346;2023-03-11T01:36:58;92638.94;;;10.71;100.00
6680;BME280;3376;42.664;23.346;2023-03-11T01:39:24;92611.31;;;10.53;100.00
6680;BME280;3376;42.664;23.346;2023-03-11T01:41:52;92641.06;;;10.74;100.00
6680;BME280;3376;42.664;23.346;2023-03-11T01:44:20;92613.91;;;10.53;100.00
6680;BME280;3376;42.664;23.346;2023-03-11T01:49:52;92605.22;;;10.48;100.00
6680;BME280;3376;42.664;23.346;2023-03-11T01:52:19;92607.22;;;10.46;100.00
6680;BME280;3376;42.664;23.346;2023-03-11T01:54:46;92556.13;;;10.00;100.00
6680;BME280;3376;42.664;23.346;2023-03-11T01:57:13;92625.44;;;10.39;100.00
6680;BME280;3376;42.664;23.346;2023-03-11T01:59:42;92642.16;;;10.25;100.00
6680;BME280;3376;42.664;23.346;2023-03-11T02:02:13;92601.50;;;9.96;100.00
6680;BME280;3376;42.664;23.346;2023-03-11T02:04:43;92648.94;;;10.26;100.00
6680;BME280;3376;42.664;23.346;2023-03-11T02:07:13;92661.28;;;10.24;100.00
6680;BME280;3376;42.664;23.346;2023-03-11T02:09:40;92655.97;;;10.19;100.00
6680;BME280;3376;42.664;23.346;2023-03-11T02:12:08;92658.03;;;10.29;100.00
6680;BME280;3376;42.664;23.346;2023-03-11T02:14:39;92665.16;;;10.33;100.00
6680;BME280;3376;42.664;23.346;2023-03-11T02:17:08;92667.16;;;10.31;100.00
6680;BME280;3376;42.664;23.346;2023-03-11T02:19:44;92678.03;;;10.22;100.00
6680;BME280;3376;42.664;23.346;2023-03-11T02:22:16;92682.00;;;10.24;100.00
6680;BME280;3376;42.664;23.346;2023-03-11T02:24:46;92683.28;;;10.15;100.00
6680;BME280;3376;42.664;23.346;2023-03-11T02:27:18;92680.84;;;10.20;100.00
6680;BME280;3376;42.664;23.346;2023-03-11T02:29:46;92691.44;;;10.30;100.00
6680;BME280;3376;42.664;23.346;2023-03-11T02:32:15;92690.91;;;10.28;100.00
6680;BME280;3376;42.664;23.346;2023-03-11T02:34:42;92682.44;;;10.21;100.00
6680;BME280;3376;42.664;23.346;2023-03-11T02:37:10;92663.47;;;10.09;100.00
6680;BME280;3376;42.664;23.346;2023-03-11T02:39:40;92678.97;;;10.27;100.00
6680;BME280;3376;42.664;23.346;2023-03-11T02:42:10;92668.91;;;10.19;100.00
6680;BME280;3376;42.664;23.346;2023-03-11T02:44:40;92637.22;;;9.88;100.00
6680;BME280;3376;42.664;23.346;2023-03-11T02:47:08;92670.13;;;10.17;100.00
6680;BME280;3376;42.664;23.346;2023-03-11T02:49:35;92684.00;;;10.22;100.00
6680;BME280;3376;42.664;23.346;2023-03-11T02:52:02;92715.44;;;10.37;100.00
6680;BME280;3376;42.664;23.346;2023-03-11T02:54:29;92700.94;;;10.36;100.00
6680;BME280;3376;42.664;23.346;2023-03-11T02:56:56;92651.53;;;9.90;100.00
6680;BME280;3376;42.664;23.346;2023-03-11T02:59:23;92686.75;;;10.09;100.00
6680;BME280;3376;42.664;23.346;2023-03-11T03:01:51;92708.00;;;10.11;100.00
6680;BME280;3376;42.664;23.346;2023-03-11T03:04:18;92694.34;;;9.86;100.00
6680;BME280;3376;42.664;23.346;2023-03-11T03:06:45;92695.00;;;9.82;100.00
6680;BME280;3376;42.664;23.346;2023-03-11T03:09:12;92634.06;;;9.31;100.00
6680;BME280;3376;42.664;23.346;2023-03-11T03:11:38;92680.75;;;9.55;100.00
6680;BME280;3376;42.664;23.346;2023-03-11T03:14:05;92696.97;;;9.62;100.00
6680;BME280;3376;42.664;23.346;2023-03-11T03:16:32;92694.56;;;9.67;100.00
6680;BME280;3376;42.664;23.346;2023-03-11T03:19:00;92695.44;;;9.79;100.00
6680;BME280;3376;42.664;23.346;2023-03-11T03:21:27;92691.75;;;9.86;100.00
6680;BME280;3376;42.664;23.346;2023-03-11T03:23:53;92691.69;;;9.93;100.00
6680;BME280;3376;42.664;23.346;2023-03-11T03:26:20;92700.94;;;10.00;100.00
6680;BME280;3376;42.664;23.346;2023-03-11T03:28:47;92693.31;;;10.05;100.00
6680;BME280;3376;42.664;23.346;2023-03-11T03:31:13;92696.09;;;10.10;100.00
6680;BME280;3376;42.664;23.346;2023-03-11T03:33:40;92696.81;;;10.17;100.00
6680;BME280;3376;42.664;23.346;2023-03-11T03:36:11;92684.63;;;10.00;100.00
6680;BME280;3376;42.664;23.346;2023-03-11T03:38:38;92696.09;;;10.10;100.00
6680;BME280;3376;42.664;23.346;2023-03-11T03:41:04;92694.78;;;10.19;100.00
6680;BME280;3376;42.664;23.346;2023-03-11T03:43:31;92674.06;;;10.01;100.00
6680;BME280;3376;42.664;23.346;2023-03-11T03:46:00;92696.94;;;10.04;100.00
6680;BME280;3376;42.664;23.346;2023-03-11T03:48:28;92664.47;;;9.90;100.00
6680;BME280;3376;42.664;23.346;2023-03-11T03:50:55;92657.16;;;9.87;100.00
6680;BME280;3376;42.664;23.346;2023-03-11T03:53:23;92685.34;;;10.07;100.00
6680;BME280;3376;42.664;23.346;2023-03-11T03:55:50;92663.16;;;9.99;100.00
6680;BME280;3376;42.664;23.346;2023-03-11T03:58:18;92668.22;;;10.12;100.00
6680;BME280;3376;42.664;23.346;2023-03-11T04:00:45;92671.72;;;10.18;100.00
6680;BME280;3376;42.664;23.346;2023-03-11T04:03:12;92683.63;;;10.19;100.00
6680;BME280;3376;42.664;23.346;2023-03-11T04:05:38;92686.94;;;10.26;100.00
6680;BME280;3376;42.664;23.346;2023-03-11T04:08:05;92684.25;;;10.32;100.00
6680;BME280;3376;42.664;23.346;2023-03-11T04:10:33;92685.19;;;10.38;100.00
6680;BME280;3376;42.664;23.346;2023-03-11T04:13:00;92679.22;;;10.37;100.00
6680;BME280;3376;42.664;23.346;2023-03-11T04:15:27;92690.06;;;10.46;100.00
6680;BME280;3376;42.664;23.346;2023-03-11T04:17:54;92688.84;;;10.48;100.00
6680;BME280;3376;42.664;23.346;2023-03-11T04:20:20;92674.59;;;10.57;100.00
6680;BME280;3376;42.664;23.346;2023-03-11T04:22:47;92693.97;;;10.66;100.00
6680;BME280;3376;42.664;23.346;2023-03-11T04:25:14;92688.50;;;10.75;100.00
6680;BME280;3376;42.664;23.346;2023-03-11T04:27:42;92676.09;;;10.77;100.00
6680;BME280;3376;42.664;23.346;2023-03-11T04:30:11;92671.94;;;10.76;100.00
6680;BME280;3376;42.664;23.346;2023-03-11T04:32:38;92694.06;;;11.01;100.00
6680;BME280;3376;42.664;23.346;2023-03-11T04:35:05;92692.56;;;10.94;100.00
6680;BME280;3376;42.664;23.346;2023-03-11T04:37:32;92630.56;;;10.57;100.00
6680;BME280;3376;42.664;23.346;2023-03-11T04:39:59;92682.31;;;10.99;100.00
6680;BME280;3376;42.664;23.346;2023-03-11T04:42:26;92691.94;;;11.10;100.00
6680;BME280;3376;42.664;23.346;2023-03-11T04:44:54;92697.56;;;11.07;100.00
6680;BME280;3376;42.664;23.346;2023-03-11T04:47:21;92695.88;;;11.12;100.00
6680;BME280;3376;42.664;23.346;2023-03-11T04:49:48;92686.53;;;11.11;100.00
6680;BME280;3376;42.664;23.346;2023-03-11T04:52:14;92684.50;;;11.02;100.00
6680;BME280;3376;42.664;23.346;2023-03-11T04:54:41;92693.41;;;11.17;100.00
6680;BME280;3376;42.664;23.346;2023-03-11T04:57:08;92685.41;;;11.19;100.00
6680;BME280;3376;42.664;23.346;2023-03-11T04:59:35;92696.88;;;11.23;100.00
6680;BME280;3376;42.664;23.346;2023-03-11T05:02:03;92689.00;;;11.18;100.00
6680;BME280;3376;42.664;23.346;2023-03-11T05:04:30;92710.06;;;11.21;100.00
6680;BME280;3376;42.664;23.346;2023-03-11T05:06:57;92714.50;;;11.32;100.00
6680;BME280;3376;42.664;23.346;2023-03-11T05:09:23;92704.00;;;11.27;100.00
6680;BME280;3376;42.664;23.346;2023-03-11T05:11:50;92716.88;;;11.34;100.00
6680;BME280;3376;42.664;23.346;2023-03-11T05:14:17;92714.03;;;11.35;100.00
6680;BME280;3376;42.664;23.346;2023-03-11T05:16:44;92720.47;;;11.44;100.00
6680;BME280;3376;42.664;23.346;2023-03-11T05:19:12;92727.56;;;11.49;100.00
6680;BME280;3376;42.664;23.346;2023-03-11T05:21:52;92702.19;;;11.28;100.00
6680;BME280;3376;42.664;23.346;2023-03-11T05:24:19;92730.06;;;11.44;100.00
6680;BME280;3376;42.664;23.346;2023-03-11T05:26:46;92727.13;;;11.40;100.00
6680;BME280;3376;42.664;23.346;2023-03-11T05:29:13;92736.16;;;11.49;100.00
6680;BME280;3376;42.664;23.346;2023-03-11T05:31:39;92747.31;;;11.61;100.00
6680;BME280;3376;42.664;23.346;2023-03-11T05:34:06;92748.69;;;11.64;100.00
6680;BME280;3376;42.664;23.346;2023-03-11T05:36:34;92747.78;;;11.58;100.00
6680;BME280;3376;42.664;23.346;2023-03-11T05:39:01;92734.34;;;11.50;100.00
6680;BME280;3376;42.664;23.346;2023-03-11T05:41:28;92750.16;;;11.60;100.00
6680;BME280;3376;42.664;23.346;2023-03-11T05:43:55;92720.72;;;11.43;99.64
6680;BME280;3376;42.664;23.346;2023-03-11T05:46:22;92752.16;;;11.58;99.16
6680;BME280;3376;42.664;23.346;2023-03-11T05:48:48;92749.00;;;11.56;97.09
6680;BME280;3376;42.664;23.346;2023-03-11T05:51:15;92755.91;;;11.62;98.87
6680;BME280;3376;42.664;23.346;2023-03-11T05:53:44;92759.41;;;11.67;98.41
6680;BME280;3376;42.664;23.346;2023-03-11T05:56:12;92773.97;;;11.68;98.66
6680;BME280;3376;42.664;23.346;2023-03-11T05:58:40;92779.94;;;11.69;99.70
6680;BME280;3376;42.664;23.346;2023-03-11T06:01:08;92785.25;;;11.74;99.46
6680;BME280;3376;42.664;23.346;2023-03-11T06:03:35;92729.81;;;11.34;100.00
6680;BME280;3376;42.664;23.346;2023-03-11T06:06:03;92782.09;;;11.72;100.00
6680;BME280;3376;42.664;23.346;2023-03-11T06:08:30;92786.16;;;11.68;100.00
6680;BME280;3376;42.664;23.346;2023-03-11T06:11:01;92794.56;;;11.63;100.00
6680;BME280;3376;42.664;23.346;2023-03-11T06:13:28;92785.75;;;11.53;100.00
6680;BME280;3376;42.664;23.346;2023-03-11T06:15:55;92785.75;;;11.53;100.00
6680;BME280;3376;42.664;23.346;2023-03-11T06:18:22;92782.81;;;11.38;100.00
6680;BME280;3376;42.664;23.346;2023-03-11T06:20:50;92777.19;;;11.41;100.00
6680;BME280;3376;42.664;23.346;2023-03-11T06:23:18;92779.81;;;11.23;100.00
6680;BME280;3376;42.664;23.346;2023-03-11T06:25:54;92788.53;;;11.28;100.00
6680;BME280;3376;42.664;23.346;2023-03-11T06:28:22;92798.78;;;11.35;100.00
6680;BME280;3376;42.664;23.346;2023-03-11T06:30:49;92778.94;;;11.29;100.00
6680;BME280;3376;42.664;23.346;2023-03-11T06:33:16;92783.81;;;11.37;100.00
6680;BME280;3376;42.664;23.346;2023-03-11T06:35:43;92791.06;;;11.46;100.00
6680;BME280;3376;42.664;23.346;2023-03-11T06:38:09;92791.81;;;11.47;100.00
6680;BME280;3376;42.664;23.346;2023-03-11T06:40:37;92797.00;;;11.47;100.00
6680;BME280;3376;42.664;23.346;2023-03-11T06:43:04;92644.25;;;10.46;100.00
6680;BME280;3376;42.664;23.346;2023-03-11T06:45:32;92801.91;;;11.55;100.00
6680;BME280;3376;42.664;23.346;2023-03-11T06:47:58;92794.13;;;11.55;100.00
6680;BME280;3376;42.664;23.346;2023-03-11T06:50:25;92797.41;;;11.62;100.00
6680;BME280;3376;42.664;23.346;2023-03-11T06:52:53;92795.09;;;11.54;100.00
6680;BME280;3376;42.664;23.346;2023-03-11T06:55:20;92803.06;;;11.70;100.00
6680;BME280;3376;42.664;23.346;2023-03-11T06:57:46;92797.41;;;11.62;100.00
6680;BME280;3376;42.664;23.346;2023-03-11T07:00:14;92799.75;;;11.63;100.00
6680;BME280;3376;42.664;23.346;2023-03-11T07:02:43;92797.59;;;11.60;100.00
6680;BME280;3376;42.664;23.346;2023-03-11T07:05:09;92799.34;;;11.66;100.00
6680;BME280;3376;42.664;23.346;2023-03-11T07:07:36;92786.94;;;11.68;100.00
6680;BME280;3376;42.664;23.346;2023-03-11T07:10:04;92767.84;;;11.51;100.00
6680;BME280;3376;42.664;23.346;2023-03-11T07:12:31;92818.75;;;11.75;100.00
6680;BME280;3376;42.664;23.346;2023-03-11T07:14:58;92800.59;;;11.75;100.00
6680;BME280;3376;42.664;23.346;2023-03-11T07:17:26;92809.59;;;11.84;100.00
6680;BME280;3376;42.664;23.346;2023-03-11T07:19:54;92663.31;;;11.05;100.00
6680;BME280;3376;42.664;23.346;2023-03-11T07:22:21;92768.78;;;11.92;100.00
6680;BME280;3376;42.664;23.346;2023-03-11T07:24:48;92798.56;;;12.12;100.00
6680;BME280;3376;42.664;23.346;2023-03-11T07:27:15;92778.16;;;12.04;100.00
6680;BME280;3376;42.664;23.346;2023-03-11T07:29:42;92797.31;;;12.26;100.00
6680;BME280;3376;42.664;23.346;2023-03-11T07:32:09;92781.81;;;12.43;99.55
6680;BME280;3376;42.664;23.346;2023-03-11T07:34:36;92791.97;;;12.56;96.89
6680;BME280;3376;42.664;23.346;2023-03-11T07:37:04;92775.78;;;12.65;96.90
6680;BME280;3376;42.664;23.346;2023-03-11T07:39:30;92780.84;;;12.72;96.62
6680;BME280;3376;42.664;23.346;2023-03-11T07:41:57;92765.88;;;12.90;97.12
6680;BME280;3376;42.664;23.346;2023-03-11T07:44:24;92768.06;;;13.10;95.53
6680;BME280;3376;42.664;23.346;2023-03-11T07:46:51;92785.81;;;13.74;91.16
6680;BME280;3376;42.664;23.346;2023-03-11T07:49:18;92781.34;;;14.08;85.18
6680;BME280;3376;42.664;23.346;2023-03-11T07:51:44;92772.59;;;14.52;84.13
6680;BME280;3376;42.664;23.346;2023-03-11T07:54:13;92768.34;;;15.11;79.49
6680;BME280;3376;42.664;23.346;2023-03-11T07:56:39;92748.97;;;15.60;76.06
6680;BME280;3376;42.664;23.346;2023-03-11T07:59:06;92758.88;;;16.26;75.08
6680;BME280;3376;42.664;23.346;2023-03-11T08:01:33;92758.28;;;16.66;71.64
6680;BME280;3376;42.664;23.346;2023-03-11T08:04:08;92741.09;;;16.85;71.15
6680;BME280;3376;42.664;23.346;2023-03-11T08:06:36;92741.13;;;16.95;70.03
6680;BME280;3376;42.664;23.346;2023-03-11T08:09:05;92733.78;;;16.82;70.75
6680;BME280;3376;42.664;23.346;2023-03-11T08:11:35;92733.06;;;16.97;72.31
6680;BME280;3376;42.664;23.346;2023-03-11T08:14:02;92732.84;;;17.28;68.27
6680;BME280;3376;42.664;23.346;2023-03-11T08:16:29;92726.53;;;17.19;67.55
6680;BME280;3376;42.664;23.346;2023-03-11T08:18:56;92698.81;;;17.28;67.01
6680;BME280;3376;42.664;23.346;2023-03-11T08:21:24;92706.16;;;17.26;65.66
6680;BME280;3376;42.664;23.346;2023-03-11T08:23:55;92596.69;;;16.48;63.37
6680;BME280;3376;42.664;23.346;2023-03-11T08:26:23;92695.69;;;17.36;63.60
6680;BME280;3376;42.664;23.346;2023-03-11T08:28:51;92702.00;;;17.71;61.88
6680;BME280;3376;42.664;23.346;2023-03-11T08:31:19;92691.28;;;17.67;59.74
6680;BME280;3376;42.664;23.346;2023-03-11T08:33:49;92686.81;;;17.68;59.94
6680;BME280;3376;42.664;23.346;2023-03-11T08:36:16;92686.28;;;17.60;60.84
6680;BME280;3376;42.664;23.346;2023-03-11T08:38:44;92642.81;;;17.09;60.09
6680;BME280;3376;42.664;23.346;2023-03-11T08:41:11;92663.75;;;17.14;61.24
6680;BME280;3376;42.664;23.346;2023-03-11T08:43:38;92643.06;;;17.18;62.12
6680;BME280;3376;42.664;23.346;2023-03-11T08:46:07;92677.41;;;17.51;57.56
6680;BME280;3376;42.664;23.346;2023-03-11T08:48:35;92671.09;;;17.78;57.26
6680;BME280;3376;42.664;23.346;2023-03-11T08:51:08;92624.25;;;17.61;54.78
6680;BME280;3376;42.664;23.346;2023-03-11T08:53:34;92668.47;;;17.42;56.57
6680;BME280;3376;42.664;23.346;2023-03-11T08:56:02;92657.50;;;17.55;56.12
6680;BME280;3376;42.664;23.346;2023-03-11T08:58:29;92648.63;;;17.51;56.46
6680;BME280;3376;42.664;23.346;2023-03-11T09:00:56;92652.78;;;17.52;56.76
6680;BME280;3376;42.664;23.346;2023-03-11T09:03:24;92660.91;;;17.41;56.87
6680;BME280;3376;42.664;23.346;2023-03-11T09:05:56;92627.13;;;17.34;57.80
6680;BME280;3376;42.664;23.346;2023-03-11T09:08:23;92639.16;;;17.60;57.27
6680;BME280;3376;42.664;23.346;2023-03-11T09:10:49;92675.84;;;17.50;56.08
6680;BME280;3376;42.664;23.346;2023-03-11T09:13:16;92667.72;;;17.57;57.16
6680;BME280;3376;42.664;23.346;2023-03-11T09:15:43;92644.38;;;17.91;56.97
6680;BME280;3376;42.664;23.346;2023-03-11T09:18:11;92655.13;;;17.69;56.04
6680;BME280;3376;42.664;23.346;2023-03-11T09:20:40;92495.28;;;16.80;57.99
6680;BME280;3376;42.664;23.346;2023-03-11T09:23:07;92622.41;;;17.31;56.73
6680;BME280;3376;42.664;23.346;2023-03-11T09:25:34;92646.50;;;17.18;58.38
6680;BME280;3376;42.664;23.346;2023-03-11T09:28:01;92647.28;;;17.09;59.07
6680;BME280;3376;42.664;23.346;2023-03-11T09:30:28;92639.97;;;17.26;60.11
6680;BME280;3376;42.664;23.346;2023-03-11T09:32:55;92610.38;;;17.25;59.12
6680;BME280;3376;42.664;23.346;2023-03-11T09:35:22;92571.41;;;17.24;59.20
6680;BME280;3376;42.664;23.346;2023-03-11T09:37:51;92648.25;;;18.03;58.39
6680;BME280;3376;42.664;23.346;2023-03-11T09:40:19;92635.28;;;18.52;57.86
6680;BME280;3376;42.664;23.346;2023-03-11T09:42:54;92628.19;;;18.52;55.80
6680;BME280;3376;42.664;23.346;2023-03-11T09:45:26;92644.22;;;18.41;55.38
6680;BME280;3376;42.664;23.346;2023-03-11T09:48:13;92631.88;;;18.46;55.38
6680;BME280;3376;42.664;23.346;2023-03-11T09:50:47;92628.88;;;18.73;52.50
6680;BME280;3376;42.664;23.346;2023-03-11T09:53:35;92631.34;;;18.98;51.96
6680;BME280;3376;42.664;23.346;2023-03-11T09:56:06;92634.31;;;19.25;50.89
6680;BME280;3376;42.664;23.346;2023-03-11T09:58:36;92628.00;;;19.26;50.56
6680;BME280;3376;42.664;23.346;2023-03-11T10:01:13;92611.09;;;19.04;49.63
6680;BME280;3376;42.664;23.346;2023-03-11T10:03:42;92622.50;;;18.84;52.01
6680;BME280;3376;42.664;23.346;2023-03-11T10:06:14;92622.66;;;18.59;50.42
6680;BME280;3376;42.664;23.346;2023-03-11T10:08:46;92618.78;;;18.41;49.45
6680;BME280;3376;42.664;23.346;2023-03-11T10:14:08;92630.19;;;18.02;50.79
6680;BME280;3376;42.664;23.346;2023-03-11T10:16:45;92618.66;;;18.08;49.43
6680;BME280;3376;42.664;23.346;2023-03-11T10:19:23;92606.06;;;18.10;51.21
6680;BME280;3376;42.664;23.346;2023-03-11T10:22:01;92634.25;;;18.43;48.94
6680;BME280;3376;42.664;23.346;2023-03-11T10:24:51;92641.50;;;18.66;48.64
6680;BME280;3376;42.664;23.346;2023-03-11T10:27:27;92638.19;;;18.45;48.73
6680;BME280;3376;42.664;23.346;2023-03-11T10:30:00;92641.69;;;18.16;49.11
6680;BME280;3376;42.664;23.346;2023-03-11T10:32:33;92644.91;;;17.73;50.40
6680;BME280;3376;42.664;23.346;2023-03-11T10:35:09;92648.09;;;17.54;52.08
6680;BME280;3376;42.664;23.346;2023-03-11T10:37:42;92643.34;;;17.77;51.86
6680;BME280;3376;42.664;23.346;2023-03-11T10:40:19;92643.53;;;18.05;51.52
6680;BME280;3376;42.664;23.346;2023-03-11T10:42:48;92604.06;;;17.72;51.07
6680;BME280;3376;42.664;23.346;2023-03-11T10:45:17;92641.75;;;17.96;51.29
6680;BME280;3376;42.664;23.346;2023-03-11T10:47:47;92608.81;;;17.34;51.65
6680;BME280;3376;42.664;23.346;2023-03-11T10:50:15;92648.03;;;17.24;53.99
6680;BME280;3376;42.664;23.346;2023-03-11T10:52:43;92652.44;;;16.74;56.79
6680;BME280;3376;42.664;23.346;2023-03-11T10:55:30;92645.56;;;16.53;55.72
6680;BME280;3376;42.664;23.346;2023-03-11T10:58:04;92659.34;;;16.33;57.76
6680;BME280;3376;42.664;23.346;2023-03-11T11:00:32;92668.31;;;15.95;59.72
6680;BME280;3376;42.664;23.346;2023-03-11T11:02:59;92660.59;;;15.74;59.87
6680;BME280;3376;42.664;23.346;2023-03-11T11:05:30;92671.19;;;15.57;59.03
6680;BME280;3376;42.664;23.346;2023-03-11T11:08:11;92665.50;;;15.33;61.80
6680;BME280;3376;42.664;23.346;2023-03-11T11:10:49;92660.91;;;15.41;61.30
6680;BME280;3376;42.664;23.346;2023-03-11T11:13:18;92622.94;;;15.60;61.45
6680;BME280;3376;42.664;23.346;2023-03-11T11:15:57;92650.19;;;16.35;59.43
6680;BME280;3376;42.664;23.346;2023-03-11T11:18:27;92630.69;;;16.53;57.98
6680;BME280;3376;42.664;23.346;2023-03-11T11:21:00;92601.41;;;16.66;57.37
6680;BME280;3376;42.664;23.346;2023-03-11T11:23:31;92636.53;;;17.00;58.18
6680;BME280;3376;42.664;23.346;2023-03-11T11:26:02;92616.09;;;16.82;57.22
6680;BME280;3376;42.664;23.346;2023-03-11T11:28:30;92633.59;;;16.77;60.48
6680;BME280;3376;42.664;23.346;2023-03-11T11:31:00;92639.31;;;16.54;61.16
6680;BME280;3376;42.664;23.346;2023-03-11T11:33:29;92635.81;;;16.28;62.04
6680;BME280;3376;42.664;23.346;2023-03-11T11:36:00;92611.13;;;15.99;62.01
6680;BME280;3376;42.664;23.346;2023-03-11T11:38:29;92597.16;;;15.73;60.64
6680;BME280;3376;42.664;23.346;2023-03-11T11:40:58;92608.91;;;15.76;61.52
6680;BME280;3376;42.664;23.346;2023-03-11T11:43:42;92603.72;;;15.81;73.10
6680;BME280;3376;42.664;23.346;2023-03-11T11:46:18;92600.09;;;15.87;62.37
6680;BME280;3376;42.664;23.346;2023-03-11T11:48:49;92600.44;;;16.05;62.58
6680;BME280;3376;42.664;23.346;2023-03-11T11:51:22;92582.75;;;16.22;60.33
6680;BME280;3376;42.664;23.346;2023-03-11T11:53:55;92582.56;;;16.54;60.24
6680;BME280;3376;42.664;23.346;2023-03-11T11:56:24;92570.63;;;16.93;58.72
6680;BME280;3376;42.664;23.346;2023-03-11T11:58:52;92586.28;;;17.64;55.78
6680;BME280;3376;42.664;23.346;2023-03-11T12:01:27;92573.59;;;18.01;54.73
6680;BME280;3376;42.664;23.346;2023-03-11T12:04:17;92583.97;;;18.26;52.55
6680;BME280;3376;42.664;23.346;2023-03-11T12:06:49;92595.41;;;18.50;52.02
6680;BME280;3376;42.664;23.346;2023-03-11T12:09:24;92576.50;;;18.58;49.88
6680;BME280;3376;42.664;23.346;2023-03-11T12:11:55;92581.97;;;18.66;46.11
6680;BME280;3376;42.664;23.346;2023-03-11T12:14:29;92576.88;;;18.85;47.41
6680;BME280;3376;42.664;23.346;2023-03-11T12:17:02;92552.63;;;18.98;53.55
6680;BME280;3376;42.664;23.346;2023-03-11T12:19:39;92530.25;;;18.72;47.64
6680;BME280;3376;42.664;23.346;2023-03-11T12:25:18;92449.69;;;17.46;46.46
6680;BME280;3376;42.664;23.346;2023-03-11T12:27:51;92433.00;;;17.02;46.46
6680;BME280;3376;42.664;23.346;2023-03-11T12:30:25;92576.75;;;17.98;47.75
6680;BME280;3376;42.664;23.346;2023-03-11T12:32:57;92554.75;;;17.99;47.40
6680;BME280;3376;42.664;23.346;2023-03-11T12:35:26;92570.22;;;17.90;47.81
6680;BME280;3376;42.664;23.346;2023-03-11T12:37:56;92571.78;;;17.96;48.80
6680;BME280;3376;42.664;23.346;2023-03-11T12:47:19;92573.75;;;17.05;52.78
6680;BME280;3376;42.664;23.346;2023-03-11T12:49:48;92570.84;;;16.77;54.15
6680;BME280;3376;42.664;23.346;2023-03-11T12:52:36;92563.94;;;16.30;54.68
6680;BME280;3376;42.664;23.346;2023-03-11T12:55:31;92581.91;;;16.12;57.39
6680;BME280;3376;42.664;23.346;2023-03-11T12:58:31;92577.75;;;16.11;56.66
6680;BME280;3376;42.664;23.346;2023-03-11T13:01:32;92587.41;;;16.15;57.24
6680;BME280;3376;42.664;23.346;2023-03-11T13:04:34;92591.38;;;16.23;57.99
6680;BME280;3376;42.664;23.346;2023-03-11T13:07:27;92593.16;;;16.07;57.73
6680;BME280;3376;42.664;23.346;2023-03-11T13:10:02;92595.53;;;16.19;57.70
6680;BME280;3376;42.664;23.346;2023-03-11T13:12:40;92602.28;;;16.15;57.89
6680;BME280;3376;42.664;23.346;2023-03-11T13:15:34;92600.09;;;15.87;60.59
6680;BME280;3376;42.664;23.346;2023-03-11T13:18:11;92616.34;;;15.99;58.20
6680;BME280;3376;42.664;23.346;2023-03-11T13:20:48;92630.38;;;15.88;58.71
6680;BME280;3376;42.664;23.346;2023-03-11T13:23:28;92640.47;;;15.69;60.38
6680;BME280;3376;42.664;23.346;2023-03-11T13:26:12;92462.22;;;14.44;60.15
6680;BME280;3376;42.664;23.346;2023-03-11T13:28:51;92634.81;;;15.41;60.78
6680;BME280;3376;42.664;23.346;2023-03-11T13:31:35;92648.69;;;15.19;62.92
6680;BME280;3376;42.664;23.346;2023-03-11T13:34:13;92675.09;;;14.96;65.63